ESGG/GOT METAR and TAF weather

Enter ICAO airport designator
Station Type Date Time Source
ESGG METAR 2020/11/28 19:20 UTC NOAA

ESGG 281920Z 07003KT 040V100 9999 OVC004 M02/M03 Q1029 R03/19//95


Station Type Date Time Source
ESGG Decoded METAR 2020/11/28 19:20 UTC NOAA

Goteborg / Landvetter, Sweden (ESGG) 57-40N 012-18E
Nov 28, 2020 - 02:20 PM EST / 2020.11.28 1920 UTC
Wind: from the ENE (070 degrees) at 3 MPH (3 KT) (direction variable):0
Visibility: greater than 7 mile(s):0
Sky conditions: overcast
Temperature: 28 F (-2 C)
Dew Point: 26 F (-3 C)
Relative Humidity: 92%
Pressure (altimeter): 30.39 in. Hg (1029 hPa)
ob: ESGG 281920Z 07003KT 040V100 9999 OVC004 M02/M03 Q1029 R03/19//95
cycle: 19

Station Type Date Time Source
ESGG TAF 2020/11/28 18:39 UTC NOAA

TAF
AMD TAF
AMD ESGG 281735Z 2818/2918 05004KT 9999 OVC003 PROB40 2818/2918 BKN015 PROB40 2818/2909 2000 BR

Example: see airport list